Grover, Nebraska
Current Conditions -  °F | °C
As of 8:54 PM on Tuesday 25 Nov 2014 (Local Time) from KLNK Reporting Station
Overcast Overcast  
Wind Chill: 37°   Ceiling: 8500
Heat Index: 42°   Visibility: 10mi
Dew Point: 25°   Wind: 9mph
Humidity: 51%   Direction: 160°SSE
Pressure: 29.88"   Gusts: NA
Location:  40.7413°N, 97.0887°W
Report Text: KLNK 260254Z 16008KT 10SM OVC085 06/M04 A2988 RMK AO2 SLP129 T00561039 58019
Loading
Personal Weather Stations






























Interactive Weather Map New forecast layout! Learn more

10-Day Weather Forecast

Advertisements
Track Severe Weather on mobile